createdAt,value
2018-01-11T00:00:25.284Z,11.83
2018-01-11T00:02:56.099Z,11.33
2018-01-11T00:05:26.875Z,12.27
2018-01-11T00:08:04.676Z,10.90
2018-01-11T00:10:35.453Z,10.80
2018-01-11T00:13:06.218Z,10.53
2018-01-11T00:15:37.012Z,10.00
2018-01-11T00:18:07.764Z,10.13
2018-01-11T00:20:38.547Z,10.90
2018-01-11T00:23:09.332Z,10.90
2018-01-11T00:25:40.112Z,10.43
2018-01-11T00:28:10.864Z,10.00
2018-01-11T00:30:41.636Z,11.07
2018-01-11T00:33:12.403Z,10.57
2018-01-11T00:35:43.212Z,10.60
2018-01-11T00:38:13.994Z,11.30
2018-01-11T00:40:44.792Z,12.97
2018-01-11T00:43:15.571Z,9.70
2018-01-11T00:45:46.343Z,10.43
2018-01-11T00:48:17.148Z,9.70
2018-01-11T00:50:47.942Z,10.17
2018-01-11T00:53:18.688Z,11.90
2018-01-11T00:55:49.470Z,11.77
2018-01-11T00:58:20.227Z,10.60
2018-01-11T01:00:51.034Z,10.90
2018-01-11T01:03:21.829Z,11.47
2018-01-11T01:05:52.714Z,11.33
2018-01-11T01:08:23.490Z,11.43
2018-01-11T01:10:54.269Z,11.70
2018-01-11T01:13:25.030Z,10.10
2018-01-11T01:15:55.805Z,11.33
2018-01-11T01:18:26.580Z,11.60
2018-01-11T01:20:57.361Z,10.30
2018-01-11T01:23:28.139Z,9.97
2018-01-11T01:25:58.917Z,10.83
2018-01-11T01:28:29.681Z,11.70
2018-01-11T01:31:00.519Z,10.50
2018-01-11T01:33:31.288Z,10.53
2018-01-11T01:36:02.073Z,11.13
2018-01-11T01:38:32.852Z,11.60
2018-01-11T01:41:03.658Z,11.00
2018-01-11T01:43:34.439Z,10.53
2018-01-11T01:46:05.217Z,10.90
2018-01-11T01:48:41.813Z,11.17
2018-01-11T01:51:12.592Z,10.68
2018-01-11T01:53:43.356Z,13.20
2018-01-11T01:56:14.128Z,10.80
2018-01-11T01:58:44.903Z,10.87
2018-01-11T02:01:15.680Z,11.47
2018-01-11T02:03:46.453Z,10.80
2018-01-11T02:06:17.256Z,10.90
2018-01-11T02:08:48.008Z,13.53
2018-01-11T02:11:18.786Z,11.03
2018-01-11T02:13:49.576Z,10.20
2018-01-11T02:16:20.376Z,10.77
2018-01-11T02:18:51.145Z,10.83
2018-01-11T02:21:21.920Z,10.97
2018-01-11T02:23:52.704Z,9.57
2018-01-11T02:26:23.487Z,9.83
2018-01-11T02:28:54.329Z,9.30
2018-01-11T02:31:25.114Z,9.17
2018-01-11T02:33:55.899Z,10.37
2018-01-11T02:36:26.668Z,10.10
2018-01-11T02:38:57.446Z,9.10
2018-01-11T02:41:28.221Z,8.67
2018-01-11T02:43:58.984Z,10.10
2018-01-11T02:46:29.759Z,10.10
2018-01-11T02:49:00.552Z,10.47
2018-01-11T02:51:31.334Z,10.37
2018-01-11T02:54:02.133Z,10.17
2018-01-11T02:56:32.893Z,9.90
2018-01-11T02:59:03.678Z,10.27
2018-01-11T03:01:34.446Z,10.00
2018-01-11T03:04:05.229Z,11.37
2018-01-11T03:06:35.988Z,12.00
2018-01-11T03:09:06.794Z,10.93
2018-01-11T03:11:37.548Z,11.10
2018-01-11T03:14:08.354Z,12.03
2018-01-11T03:16:39.129Z,11.20
2018-01-11T03:19:09.920Z,11.37
2018-01-11T03:21:40.673Z,10.97
2018-01-11T03:24:11.490Z,12.60
2018-01-11T03:26:42.264Z,11.77
2018-01-11T03:29:13.125Z,11.70
2018-01-11T03:31:43.897Z,10.83
2018-01-11T03:34:14.681Z,12.47
2018-01-11T03:36:45.492Z,11.90
2018-01-11T03:39:23.228Z,10.40
2018-01-11T03:41:54.005Z,10.88
2018-01-11T03:44:24.778Z,11.07
2018-01-11T03:46:55.532Z,11.20
2018-01-11T03:49:26.309Z,10.33
2018-01-11T03:51:57.065Z,10.93
2018-01-11T03:54:27.841Z,10.37
2018-01-11T03:56:58.587Z,11.57
2018-01-11T03:59:29.345Z,11.03
2018-01-11T04:02:00.093Z,10.13
2018-01-11T04:04:30.853Z,9.40
2018-01-11T04:07:01.596Z,10.50
2018-01-11T04:09:32.378Z,9.90
2018-01-11T04:12:03.129Z,10.10
2018-01-11T04:14:33.899Z,10.40
2018-01-11T04:17:04.677Z,10.23
2018-01-11T04:19:35.442Z,9.77
2018-01-11T04:22:06.208Z,10.93
2018-01-11T04:24:36.993Z,10.20
2018-01-11T04:27:07.738Z,10.30
2018-01-11T04:29:38.506Z,10.13
2018-01-11T04:32:09.261Z,10.63
2018-01-11T04:34:40.050Z,11.00
2018-01-11T04:37:10.802Z,11.07
2018-01-11T04:39:41.582Z,10.60
2018-01-11T04:42:12.352Z,11.50
2018-01-11T04:44:43.117Z,10.43
2018-01-11T04:47:13.957Z,11.10
2018-01-11T04:49:44.745Z,10.37
2018-01-11T04:52:15.528Z,9.53
2018-01-11T04:54:46.299Z,10.97
2018-01-11T04:57:17.060Z,9.37
2018-01-11T04:59:47.850Z,10.10
2018-01-11T05:02:18.616Z,10.80
2018-01-11T05:04:49.391Z,10.10
2018-01-11T05:07:20.158Z,9.80
2018-01-11T05:09:50.942Z,11.60
2018-01-11T05:12:21.720Z,10.57
2018-01-11T05:14:52.514Z,10.43
2018-01-11T05:17:23.305Z,11.47
2018-01-11T05:19:54.079Z,10.70
2018-01-11T05:22:24.881Z,10.97
2018-01-11T05:24:55.666Z,11.07
2018-01-11T05:27:26.441Z,10.63
2018-01-11T05:29:57.248Z,9.90
2018-01-11T05:32:28.007Z,11.30
2018-01-11T05:34:58.766Z,10.13
2018-01-11T05:37:29.538Z,9.17
2018-01-11T05:40:00.353Z,10.17
2018-01-11T05:42:31.140Z,10.67
2018-01-11T05:45:01.900Z,9.70
2018-01-11T05:47:32.658Z,11.10
2018-01-11T05:50:03.506Z,10.40
2018-01-11T05:52:34.290Z,11.20
2018-01-11T05:55:05.048Z,10.30
2018-01-11T05:57:35.798Z,9.50
2018-01-11T06:00:06.568Z,10.77
2018-01-11T06:02:37.328Z,11.30
2018-01-11T06:05:08.104Z,9.23
2018-01-11T06:07:38.853Z,11.33
2018-01-11T06:10:09.637Z,10.50
2018-01-11T06:12:40.388Z,11.70
2018-01-11T06:15:11.164Z,11.57
2018-01-11T06:17:41.983Z,11.17
2018-01-11T06:20:12.745Z,11.30
2018-01-11T06:22:43.542Z,10.50
2018-01-11T06:25:14.366Z,10.40
2018-01-11T06:27:45.144Z,10.90
2018-01-11T06:30:15.919Z,12.47
2018-01-11T06:32:46.685Z,11.43
2018-01-11T06:35:17.456Z,12.13
2018-01-11T06:37:48.212Z,12.73
2018-01-11T06:40:18.988Z,12.53
2018-01-11T06:42:49.732Z,12.20
2018-01-11T06:45:20.512Z,11.30
2018-01-11T06:47:51.276Z,11.60
2018-01-11T06:50:22.044Z,12.60
2018-01-11T06:52:52.834Z,11.50
2018-01-11T06:55:23.566Z,12.00
2018-01-11T06:57:54.343Z,11.70
2018-01-11T07:00:25.137Z,12.20
2018-01-11T07:02:55.917Z,13.33
2018-01-11T07:05:26.702Z,12.13
2018-01-11T07:07:57.501Z,11.17
2018-01-11T07:10:28.326Z,11.50
2018-01-11T07:12:59.111Z,11.23
2018-01-11T07:15:29.911Z,13.57
2018-01-11T07:18:00.673Z,12.90
2018-01-11T07:20:31.449Z,11.43
2018-01-11T07:23:02.225Z,13.47
2018-01-11T07:25:33.018Z,13.23
2018-01-11T07:28:03.788Z,13.30
2018-01-11T07:30:34.580Z,12.13
2018-01-11T07:33:05.364Z,13.47
2018-01-11T07:35:36.155Z,14.10
2018-01-11T07:38:06.921Z,12.73
2018-01-11T07:40:37.702Z,12.10
2018-01-11T07:43:08.468Z,13.57
2018-01-11T07:45:39.284Z,13.10
2018-01-11T07:48:10.041Z,12.63
2018-01-11T07:50:40.798Z,12.73
2018-01-11T07:53:11.565Z,12.07
2018-01-11T07:55:42.320Z,12.20
2018-01-11T07:58:13.092Z,12.17
2018-01-11T08:00:43.885Z,12.10
2018-01-11T08:03:14.642Z,11.33
2018-01-11T08:05:45.407Z,13.23
2018-01-11T08:08:16.173Z,11.83
2018-01-11T08:10:47.032Z,11.70
2018-01-11T08:13:17.848Z,10.90
2018-01-11T08:15:48.655Z,11.77
2018-01-11T08:18:19.448Z,11.97
2018-01-11T08:20:50.260Z,11.23
2018-01-11T08:23:21.025Z,11.80
2018-01-11T08:25:51.833Z,11.83
2018-01-11T08:28:22.669Z,12.40
2018-01-11T08:30:53.540Z,12.03
2018-01-11T08:33:24.304Z,12.60
2018-01-11T08:35:55.088Z,13.27
2018-01-11T08:38:25.857Z,12.13
2018-01-11T08:40:56.630Z,12.20
2018-01-11T08:43:27.380Z,11.33
2018-01-11T08:45:58.170Z,10.80
2018-01-11T08:48:28.916Z,11.80
2018-01-11T08:50:59.688Z,11.57
2018-01-11T08:53:30.444Z,11.97
2018-01-11T08:56:01.276Z,11.17
2018-01-11T08:58:32.056Z,12.30
2018-01-11T09:01:02.838Z,13.80
2018-01-11T09:03:33.597Z,12.03
2018-01-11T09:06:04.373Z,12.20
2018-01-11T09:08:35.136Z,12.30
2018-01-11T09:11:05.892Z,12.43
2018-01-11T09:13:36.628Z,12.50
2018-01-11T09:16:17.772Z,11.97
2018-01-11T09:18:48.551Z,13.30
2018-01-11T09:21:19.384Z,12.73
2018-01-11T09:23:50.148Z,13.10
2018-01-11T09:26:20.938Z,12.40
2018-01-11T09:28:51.697Z,12.83
2018-01-11T09:31:22.462Z,11.87
2018-01-11T09:33:53.373Z,12.50
2018-01-11T09:36:24.183Z,12.77
2018-01-11T09:41:32.320Z,13.25
2018-01-11T09:44:03.057Z,13.03
2018-01-11T09:46:33.833Z,12.80
2018-01-11T09:49:04.587Z,12.40
2018-01-11T09:51:35.369Z,14.37
2018-01-11T09:54:06.124Z,11.70
2018-01-11T09:56:36.929Z,15.23
2018-01-11T09:59:07.728Z,14.77
2018-01-11T10:01:38.509Z,16.03
2018-01-11T10:04:09.278Z,13.63
2018-01-11T10:06:40.174Z,13.40
2018-01-11T10:09:10.974Z,14.10
2018-01-11T10:11:41.749Z,11.77
2018-01-11T10:14:12.536Z,12.00
2018-01-11T10:16:43.329Z,13.57
2018-01-11T10:19:14.106Z,13.40
2018-01-11T10:21:44.925Z,13.33
2018-01-11T10:24:15.716Z,12.10
2018-01-11T10:26:46.534Z,13.13
2018-01-11T10:29:17.318Z,13.63
2018-01-11T10:31:48.120Z,12.47
2018-01-11T10:34:18.888Z,13.77
2018-01-11T10:36:49.671Z,14.07
2018-01-11T10:39:20.463Z,13.73
2018-01-11T10:41:51.254Z,13.07
2018-01-11T10:44:22.017Z,12.63
2018-01-11T10:46:54.853Z,14.37
2018-01-11T10:49:37.661Z,14.57
2018-01-11T10:52:08.438Z,16.10
2018-01-11T10:54:39.227Z,14.63
2018-01-11T10:57:10.127Z,14.57
2018-01-11T10:59:40.906Z,12.77
2018-01-11T11:02:17.889Z,13.87
2018-01-11T11:04:48.648Z,13.85
2018-01-11T11:07:19.461Z,13.50
2018-01-11T11:09:50.303Z,14.70
2018-01-11T11:12:21.179Z,13.97
2018-01-11T11:14:51.933Z,13.47
2018-01-11T11:17:22.731Z,13.70
2018-01-11T11:19:53.478Z,13.90
2018-01-11T11:22:24.234Z,14.57
2018-01-11T11:24:54.993Z,15.00
2018-01-11T11:27:25.808Z,16.20
2018-01-11T11:29:56.577Z,16.30
2018-01-11T11:32:27.353Z,15.30
2018-01-11T11:34:58.142Z,19.93
2018-01-11T11:37:28.981Z,15.93
2018-01-11T11:39:59.818Z,17.80
2018-01-11T11:42:30.608Z,15.40
2018-01-11T11:45:01.369Z,17.00
2018-01-11T11:47:32.241Z,16.83
2018-01-11T11:50:03.013Z,16.33
2018-01-11T11:52:33.801Z,18.00
2018-01-11T11:55:04.557Z,18.53
2018-01-11T11:57:35.336Z,16.73
2018-01-11T12:00:06.209Z,15.47
2018-01-11T12:02:37.119Z,16.27
2018-01-11T12:05:07.985Z,16.67
2018-01-11T12:07:38.825Z,16.63
2018-01-11T12:10:09.584Z,15.87
2018-01-11T12:12:40.357Z,18.07
2018-01-11T12:15:11.135Z,18.40
2018-01-11T12:17:41.908Z,57.13
2018-01-11T12:20:34.926Z,18.23
2018-01-11T12:23:05.722Z,18.33
2018-01-11T12:25:36.502Z,17.50
2018-01-11T12:28:07.301Z,17.67
2018-01-11T12:30:38.093Z,15.83
2018-01-11T12:33:08.894Z,17.07
2018-01-11T12:35:39.668Z,16.73
2018-01-11T12:38:10.476Z,18.90
2018-01-11T12:40:41.236Z,17.60
2018-01-11T12:43:12.003Z,17.60
2018-01-11T12:45:42.792Z,17.80
2018-01-11T12:48:13.605Z,18.63
2018-01-11T12:50:44.369Z,19.23
2018-01-11T12:53:15.182Z,17.50
2018-01-11T12:55:45.946Z,17.53
2018-01-11T12:58:16.728Z,19.77
2018-01-11T13:00:47.750Z,18.37
2018-01-11T13:03:18.537Z,18.12
2018-01-11T13:05:49.329Z,16.80
2018-01-11T13:08:20.080Z,22.17
2018-01-11T13:10:50.830Z,17.80
2018-01-11T13:13:21.610Z,20.27
2018-01-11T13:15:52.367Z,19.97
2018-01-11T13:18:23.151Z,19.43
2018-01-11T13:20:53.939Z,18.87
2018-01-11T13:23:24.789Z,19.50
2018-01-11T13:25:55.577Z,19.73
2018-01-11T13:28:26.408Z,19.80
2018-01-11T13:30:57.180Z,18.87
2018-01-11T13:33:27.964Z,20.00
2018-01-11T13:35:58.729Z,22.20
2018-01-11T13:38:29.617Z,20.50
2018-01-11T13:41:00.382Z,19.50
2018-01-11T13:43:31.184Z,19.60
2018-01-11T13:46:01.948Z,18.43
2018-01-11T13:48:32.745Z,19.27
2018-01-11T13:51:03.509Z,19.80
2018-01-11T13:53:34.298Z,20.60
2018-01-11T13:56:05.045Z,18.97
2018-01-11T13:58:35.824Z,18.60
2018-01-11T14:01:06.576Z,20.33
2018-01-11T14:03:37.352Z,20.23
2018-01-11T14:06:08.136Z,19.57
2018-01-11T14:08:38.933Z,18.93
2018-01-11T14:11:09.699Z,20.43
2018-01-11T14:13:40.501Z,20.67
2018-01-11T14:16:11.284Z,23.97
2018-01-11T14:18:42.058Z,20.93
2018-01-11T14:21:12.903Z,20.80
2018-01-11T14:23:43.689Z,21.57
2018-01-11T14:26:14.453Z,18.60
2018-01-11T14:28:45.294Z,18.07
2018-01-11T14:31:16.064Z,19.37
2018-01-11T14:33:46.916Z,20.23
2018-01-11T14:36:18.082Z,18.87
2018-01-11T14:38:48.488Z,20.20
2018-01-11T14:41:19.266Z,20.63
2018-01-11T14:43:50.064Z,18.87
2018-01-11T14:46:20.856Z,21.83
2018-01-11T14:48:51.736Z,20.77
2018-01-11T14:51:22.515Z,19.80
2018-01-11T14:53:53.386Z,17.90
2018-01-11T14:56:24.197Z,18.17
2018-01-11T14:58:55.037Z,19.73
2018-01-11T15:01:25.863Z,19.97
2018-01-11T15:03:56.727Z,20.43
2018-01-11T15:06:27.505Z,16.87
2018-01-11T15:08:58.396Z,17.50
2018-01-11T15:11:29.209Z,18.60
2018-01-11T15:14:00.050Z,19.27
2018-01-11T15:16:30.904Z,17.57
2018-01-11T15:19:01.711Z,17.13
2018-01-11T15:21:32.508Z,17.53
2018-01-11T15:24:04.400Z,17.03
2018-01-11T15:26:35.142Z,20.62
2018-01-11T15:29:05.976Z,20.97
2018-01-11T15:31:36.828Z,19.60
2018-01-11T15:34:07.670Z,17.57
2018-01-11T15:36:38.494Z,19.30
2018-01-11T15:39:09.346Z,19.90
2018-01-11T15:41:40.123Z,20.33
2018-01-11T15:44:10.907Z,20.20
2018-01-11T15:46:41.702Z,17.87
2018-01-11T15:49:12.572Z,17.93
2018-01-11T15:51:43.337Z,19.90
2018-01-11T15:54:14.144Z,19.53
2018-01-11T15:56:44.884Z,18.80
2018-01-11T15:59:15.662Z,18.37
2018-01-11T16:01:46.464Z,19.50
2018-01-11T16:04:17.222Z,19.43
2018-01-11T16:06:48.005Z,17.70
2018-01-11T16:09:18.808Z,16.90
2018-01-11T16:11:49.567Z,17.00
2018-01-11T16:14:20.449Z,19.00
2018-01-11T16:16:51.213Z,17.10
2018-01-11T16:19:22.004Z,16.57
2018-01-11T16:21:52.772Z,18.80
2018-01-11T16:24:23.552Z,16.70
2018-01-11T16:26:54.396Z,16.57
2018-01-11T16:29:25.254Z,16.83
2018-01-11T16:31:56.080Z,16.40
2018-01-11T16:34:26.978Z,17.00
2018-01-11T16:36:57.763Z,16.37
2018-01-11T16:39:28.548Z,14.40
2018-01-11T16:41:59.323Z,14.23
2018-01-11T16:44:30.167Z,15.20
2018-01-11T16:47:00.971Z,16.03
2018-01-11T16:49:31.845Z,14.87
2018-01-11T16:52:02.656Z,16.07
2018-01-11T16:54:33.436Z,15.50
2018-01-11T16:57:04.189Z,17.70
2018-01-11T16:59:34.996Z,17.07
2018-01-11T17:02:05.839Z,15.23
2018-01-11T17:04:36.686Z,15.67
2018-01-11T17:07:07.498Z,18.30
2018-01-11T17:09:38.326Z,16.10
2018-01-11T17:12:09.162Z,16.00
2018-01-11T17:14:40.000Z,16.13
2018-01-11T17:17:10.830Z,15.20
2018-01-11T17:19:41.700Z,15.77
2018-01-11T17:22:12.485Z,16.40
2018-01-11T17:24:43.346Z,16.30
2018-01-11T17:27:14.200Z,14.97
2018-01-11T17:32:47.681Z,14.50
2018-01-11T17:35:34.529Z,15.25
2018-01-11T17:38:05.327Z,14.40
2018-01-11T17:40:36.175Z,14.80
2018-01-11T17:43:07.009Z,13.83
2018-01-11T17:45:37.837Z,15.20
2018-01-11T17:48:08.673Z,15.87
2018-01-11T17:50:39.557Z,15.93
2018-01-11T17:53:10.363Z,14.50
2018-01-11T17:55:41.176Z,15.23
2018-01-11T17:58:11.938Z,15.00
2018-01-11T18:00:43.279Z,14.00
2018-01-11T18:03:14.036Z,15.10
2018-01-11T18:05:44.812Z,14.17
2018-01-11T18:08:15.680Z,14.00
2018-01-11T18:10:46.543Z,13.70
2018-01-11T18:13:17.357Z,13.60
2018-01-11T18:15:48.216Z,14.33
2018-01-11T18:18:19.008Z,15.23
2018-01-11T18:20:49.788Z,15.07
2018-01-11T18:23:25.192Z,14.67
2018-01-11T18:25:55.997Z,17.65
2018-01-11T18:28:26.875Z,16.87
2018-01-11T18:30:57.740Z,15.53
2018-01-11T18:33:28.562Z,14.97
2018-01-11T18:35:59.417Z,15.43
2018-01-11T18:38:30.196Z,14.20
2018-01-11T18:41:01.093Z,14.07
2018-01-11T18:43:31.864Z,13.87
2018-01-11T18:46:02.776Z,15.03
2018-01-11T18:48:33.574Z,15.57
2018-01-11T18:51:04.360Z,13.90
2018-01-11T18:53:35.255Z,13.27
2018-01-11T18:56:06.079Z,13.03
2018-01-11T18:58:36.868Z,15.80
2018-01-11T19:01:07.758Z,15.80
2018-01-11T19:03:38.520Z,13.93
2018-01-11T19:06:09.326Z,16.40
2018-01-11T19:08:40.113Z,14.60
2018-01-11T19:11:10.880Z,13.00
2018-01-11T19:13:41.656Z,15.73
2018-01-11T19:16:12.457Z,15.10
2018-01-11T19:18:43.276Z,15.03
2018-01-11T19:21:15.001Z,15.68
2018-01-11T19:23:45.885Z,14.47
2018-01-11T19:26:16.676Z,14.47
2018-01-11T19:28:47.449Z,13.77
2018-01-11T19:31:18.397Z,13.83
2018-01-11T19:33:49.228Z,15.13
2018-01-11T19:36:20.039Z,12.93
2018-01-11T19:38:50.836Z,12.23
2018-01-11T19:41:21.660Z,14.10
2018-01-11T19:43:52.465Z,14.90
2018-01-11T19:46:23.365Z,11.73
2018-01-11T19:48:54.169Z,14.53
2018-01-11T19:51:24.920Z,14.67
2018-01-11T19:53:55.797Z,15.50
2018-01-11T19:56:26.590Z,13.90
2018-01-11T19:58:57.368Z,13.50
2018-01-11T20:01:28.132Z,14.03
2018-01-11T20:03:58.888Z,12.87
2018-01-11T20:06:29.679Z,13.67
2018-01-11T20:09:00.466Z,15.50
2018-01-11T20:11:31.240Z,13.00
2018-01-11T20:14:02.008Z,14.40
2018-01-11T20:16:32.896Z,14.40
2018-01-11T20:19:03.701Z,12.27
2018-01-11T20:21:34.635Z,13.23
2018-01-11T20:24:05.509Z,12.90
2018-01-11T20:26:36.321Z,13.50
2018-01-11T20:29:07.134Z,13.90
2018-01-11T20:31:37.972Z,13.97
2018-01-11T20:34:08.756Z,12.60
2018-01-11T20:36:39.660Z,14.77
2018-01-11T20:39:10.432Z,14.80
2018-01-11T20:41:41.391Z,13.07
2018-01-11T20:44:12.169Z,14.20
2018-01-11T20:46:42.961Z,16.03
2018-01-11T20:49:13.742Z,16.77
2018-01-11T20:51:44.570Z,16.67
2018-01-11T20:54:15.377Z,17.03
2018-01-11T20:56:46.526Z,17.23
2018-01-11T20:59:17.383Z,15.13
2018-01-11T21:01:48.202Z,15.60
2018-01-11T21:04:18.948Z,16.30
2018-01-11T21:06:49.751Z,17.03
2018-01-11T21:09:20.518Z,16.60
2018-01-11T21:11:51.349Z,15.73
2018-01-11T21:14:22.133Z,16.90
2018-01-11T21:16:53.042Z,16.17
2018-01-11T21:19:23.852Z,16.60
2018-01-11T21:21:54.713Z,16.70
2018-01-11T21:24:25.536Z,16.90
2018-01-11T21:26:56.410Z,16.60
2018-01-11T21:29:27.176Z,15.87
2018-01-11T21:31:58.059Z,15.70
2018-01-11T21:34:28.809Z,14.80
2018-01-11T21:36:59.966Z,15.93
2018-01-11T21:39:30.725Z,15.82
2018-01-11T21:42:01.530Z,16.47
2018-01-11T21:44:32.388Z,18.30
2018-01-11T21:47:03.189Z,16.30
2018-01-11T21:49:34.015Z,16.87
2018-01-11T21:52:04.972Z,15.20
2018-01-11T21:54:35.913Z,17.53
2018-01-11T21:57:06.858Z,17.60
2018-01-11T21:59:37.980Z,18.00
2018-01-11T22:02:08.969Z,15.65
2018-01-11T22:04:39.744Z,16.80
2018-01-11T22:07:10.589Z,17.70
2018-01-11T22:09:41.384Z,16.60
2018-01-11T22:12:12.161Z,17.60
2018-01-11T22:14:42.913Z,15.83
2018-01-11T22:17:13.673Z,16.23
2018-01-11T22:19:44.472Z,16.00
2018-01-11T22:22:15.334Z,19.60
2018-01-11T22:24:46.088Z,18.77
2018-01-11T22:27:16.903Z,15.83
2018-01-11T22:29:47.681Z,15.27
2018-01-11T22:32:18.478Z,17.33
2018-01-11T22:34:49.233Z,16.30
2018-01-11T22:37:20.073Z,16.00
2018-01-11T22:39:50.849Z,16.70
2018-01-11T22:42:21.650Z,17.93
2018-01-11T22:44:52.415Z,16.40
2018-01-11T22:47:23.206Z,16.63
2018-01-11T22:50:00.974Z,15.90
2018-01-11T22:52:31.757Z,16.83
2018-01-11T22:55:02.510Z,18.10
2018-01-11T22:57:33.260Z,16.10
2018-01-11T23:00:04.060Z,14.50
2018-01-11T23:02:34.868Z,16.70
2018-01-11T23:05:05.624Z,15.90
2018-01-11T23:07:36.389Z,14.97
2018-01-11T23:10:07.156Z,15.60
2018-01-11T23:12:37.936Z,14.60
2018-01-11T23:15:08.672Z,12.70
2018-01-11T23:17:39.444Z,14.03
2018-01-11T23:20:10.233Z,14.20
2018-01-11T23:22:41.090Z,11.90
2018-01-11T23:25:11.853Z,12.30
2018-01-11T23:27:42.640Z,12.13
2018-01-11T23:30:13.413Z,13.30
2018-01-11T23:32:44.174Z,11.87
2018-01-11T23:35:15.108Z,12.43
2018-01-11T23:37:45.906Z,12.60
2018-01-11T23:40:16.661Z,12.87
2018-01-11T23:42:47.469Z,11.83
2018-01-11T23:45:18.236Z,12.83
2018-01-11T23:47:49.403Z,11.60
2018-01-11T23:50:20.150Z,12.05
2018-01-11T23:52:50.953Z,12.33
2018-01-11T23:55:21.750Z,12.40
2018-01-11T23:57:52.579Z,12.63
